sensor_id;sensor_type;location;lat;lon;timestamp;pressure;altitude;pressure_sealevel;temperature
70533;BMP180;58088;51.186;17.130;2023-02-10T00:01:24;101899.20;;;2.10
70533;BMP180;58088;51.186;17.130;2023-02-10T00:03:51;101892.40;;;2.10
70533;BMP180;58088;51.186;17.130;2023-02-10T00:06:21;101906.60;;;2.10
70533;BMP180;58088;51.186;17.130;2023-02-10T00:08:52;101908.60;;;2.10
70533;BMP180;58088;51.186;17.130;2023-02-10T00:11:19;101913.20;;;2.10
70533;BMP180;58088;51.186;17.130;2023-02-10T00:14:06;101913.40;;;2.08
70533;BMP180;58088;51.186;17.130;2023-02-10T00:16:32;101913.80;;;2.00
70533;BMP180;58088;51.186;17.130;2023-02-10T00:18:58;101910.40;;;2.00
70533;BMP180;58088;51.186;17.130;2023-02-10T00:21:25;101910.20;;;1.90
70533;BMP180;58088;51.186;17.130;2023-02-10T00:23:51;101917.60;;;1.80
70533;BMP180;58088;51.186;17.130;2023-02-10T00:26:18;101912.20;;;1.80
70533;BMP180;58088;51.186;17.130;2023-02-10T00:28:45;101917.80;;;1.70
70533;BMP180;58088;51.186;17.130;2023-02-10T00:31:15;101915.20;;;1.70
70533;BMP180;58088;51.186;17.130;2023-02-10T00:33:45;101907.00;;;1.70
70533;BMP180;58088;51.186;17.130;2023-02-10T00:36:14;101908.40;;;1.70
70533;BMP180;58088;51.186;17.130;2023-02-10T00:38:42;101905.20;;;1.70
70533;BMP180;58088;51.186;17.130;2023-02-10T00:41:15;101912.00;;;1.70
70533;BMP180;58088;51.186;17.130;2023-02-10T00:43:42;101916.80;;;1.70
70533;BMP180;58088;51.186;17.130;2023-02-10T00:46:14;101917.40;;;1.70
70533;BMP180;58088;51.186;17.130;2023-02-10T00:48:40;101918.80;;;1.70
70533;BMP180;58088;51.186;17.130;2023-02-10T00:51:07;101927.40;;;1.70
70533;BMP180;58088;51.186;17.130;2023-02-10T00:53:34;101924.00;;;1.60
70533;BMP180;58088;51.186;17.130;2023-02-10T00:56:00;101924.00;;;1.60
70533;BMP180;58088;51.186;17.130;2023-02-10T00:58:27;101921.80;;;1.60
70533;BMP180;58088;51.186;17.130;2023-02-10T01:00:55;101922.60;;;1.50
70533;BMP180;58088;51.186;17.130;2023-02-10T01:03:22;101916.60;;;1.50
70533;BMP180;58088;51.186;17.130;2023-02-10T01:05:49;101919.80;;;1.40
70533;BMP180;58088;51.186;17.130;2023-02-10T01:08:16;101923.40;;;1.40
70533;BMP180;58088;51.186;17.130;2023-02-10T01:10:43;101922.60;;;1.40
70533;BMP180;58088;51.186;17.130;2023-02-10T01:13:12;101915.20;;;1.38
70533;BMP180;58088;51.186;17.130;2023-02-10T01:15:45;101910.40;;;1.30
70533;BMP180;58088;51.186;17.130;2023-02-10T01:18:11;101903.60;;;1.30
70533;BMP180;58088;51.186;17.130;2023-02-10T01:20:43;101899.40;;;1.28
70533;BMP180;58088;51.186;17.130;2023-02-10T01:23:10;101899.60;;;1.20
70533;BMP180;58088;51.186;17.130;2023-02-10T01:25:37;101894.20;;;1.20
70533;BMP180;58088;51.186;17.130;2023-02-10T01:28:05;101893.20;;;1.14
70533;BMP180;58088;51.186;17.130;2023-02-10T01:30:32;101888.20;;;1.10
70533;BMP180;58088;51.186;17.130;2023-02-10T01:32:59;101890.60;;;1.10
70533;BMP180;58088;51.186;17.130;2023-02-10T01:35:25;101894.40;;;1.10
70533;BMP180;58088;51.186;17.130;2023-02-10T01:37:52;101889.20;;;1.00
70533;BMP180;58088;51.186;17.130;2023-02-10T01:40:21;101897.00;;;1.00
70533;BMP180;58088;51.186;17.130;2023-02-10T01:42:50;101886.60;;;1.00
70533;BMP180;58088;51.186;17.130;2023-02-10T01:45:26;101887.60;;;1.00
70533;BMP180;58088;51.186;17.130;2023-02-10T01:47:56;101880.60;;;0.90
70533;BMP180;58088;51.186;17.130;2023-02-10T01:50:31;101879.60;;;0.90
70533;BMP180;58088;51.186;17.130;2023-02-10T01:53:04;101877.40;;;0.84
70533;BMP180;58088;51.186;17.130;2023-02-10T01:55:34;101876.40;;;0.80
70533;BMP180;58088;51.186;17.130;2023-02-10T01:58:05;101870.00;;;0.70
70533;BMP180;58088;51.186;17.130;2023-02-10T02:00:32;101874.80;;;0.70
70533;BMP180;58088;51.186;17.130;2023-02-10T02:03:16;101877.00;;;0.70
70533;BMP180;58088;51.186;17.130;2023-02-10T02:05:44;101883.20;;;0.68
70533;BMP180;58088;51.186;17.130;2023-02-10T02:08:17;101897.40;;;0.60
70533;BMP180;58088;51.186;17.130;2023-02-10T02:17:32;101907.00;;;0.50
70533;BMP180;58088;51.186;17.130;2023-02-10T02:28:48;101897.60;;;0.30
70533;BMP180;58088;51.186;17.130;2023-02-10T02:34:21;101897.80;;;0.10
70533;BMP180;58088;51.186;17.130;2023-02-10T02:37:23;101903.20;;;0.00
70533;BMP180;58088;51.186;17.130;2023-02-10T02:39:52;101901.60;;;0.00
70533;BMP180;58088;51.186;17.130;2023-02-10T02:42:31;101899.00;;;-0.08
70533;BMP180;58088;51.186;17.130;2023-02-10T02:45:05;101899.20;;;-0.10
70533;BMP180;58088;51.186;17.130;2023-02-10T02:53:08;101895.00;;;-0.30
70533;BMP180;58088;51.186;17.130;2023-02-10T03:01:40;101891.00;;;-0.20
70533;BMP180;58088;51.186;17.130;2023-02-10T03:04:12;101882.60;;;-0.20
70533;BMP180;58088;51.186;17.130;2023-02-10T03:06:39;101880.80;;;-0.20
70533;BMP180;58088;51.186;17.130;2023-02-10T03:09:05;101883.20;;;-0.20
70533;BMP180;58088;51.186;17.130;2023-02-10T03:11:32;101883.00;;;-0.22
70533;BMP180;58088;51.186;17.130;2023-02-10T03:13:58;101881.80;;;-0.20
70533;BMP180;58088;51.186;17.130;2023-02-10T03:16:24;101883.80;;;-0.24
70533;BMP180;58088;51.186;17.130;2023-02-10T03:18:51;101886.60;;;-0.24
70533;BMP180;58088;51.186;17.130;2023-02-10T03:21:18;101894.60;;;-0.20
70533;BMP180;58088;51.186;17.130;2023-02-10T03:23:44;101899.60;;;-0.20
70533;BMP180;58088;51.186;17.130;2023-02-10T03:26:11;101902.80;;;-0.20
70533;BMP180;58088;51.186;17.130;2023-02-10T03:28:38;101907.00;;;-0.12
70533;BMP180;58088;51.186;17.130;2023-02-10T03:31:06;101899.20;;;-0.10
70533;BMP180;58088;51.186;17.130;2023-02-10T03:33:33;101908.00;;;-0.10
70533;BMP180;58088;51.186;17.130;2023-02-10T03:36:01;101915.20;;;-0.10
70533;BMP180;58088;51.186;17.130;2023-02-10T03:38:28;101908.20;;;-0.10
70533;BMP180;58088;51.186;17.130;2023-02-10T03:40:54;101913.00;;;-0.10
70533;BMP180;58088;51.186;17.130;2023-02-10T03:43:21;101926.00;;;-0.10
70533;BMP180;58088;51.186;17.130;2023-02-10T03:45:48;101924.60;;;-0.10
70533;BMP180;58088;51.186;17.130;2023-02-10T03:48:14;101913.40;;;-0.10
70533;BMP180;58088;51.186;17.130;2023-02-10T03:50:44;101911.20;;;-0.08
70533;BMP180;58088;51.186;17.130;2023-02-10T03:53:11;101917.00;;;0.00
70533;BMP180;58088;51.186;17.130;2023-02-10T03:55:37;101920.20;;;0.00
70533;BMP180;58088;51.186;17.130;2023-02-10T03:58:03;101925.40;;;0.00
70533;BMP180;58088;51.186;17.130;2023-02-10T04:00:31;101923.80;;;0.00
70533;BMP180;58088;51.186;17.130;2023-02-10T04:02:57;101932.60;;;0.02
70533;BMP180;58088;51.186;17.130;2023-02-10T04:05:24;101934.80;;;0.10
70533;BMP180;58088;51.186;17.130;2023-02-10T04:07:50;101931.20;;;0.10
70533;BMP180;58088;51.186;17.130;2023-02-10T04:10:16;101927.60;;;0.10
70533;BMP180;58088;51.186;17.130;2023-02-10T04:12:42;101925.00;;;0.10
70533;BMP180;58088;51.186;17.130;2023-02-10T04:15:09;101931.20;;;0.10
70533;BMP180;58088;51.186;17.130;2023-02-10T04:17:35;101934.20;;;0.10
70533;BMP180;58088;51.186;17.130;2023-02-10T04:20:01;101933.20;;;0.10
70533;BMP180;58088;51.186;17.130;2023-02-10T04:22:28;101934.80;;;0.10
70533;BMP180;58088;51.186;17.130;2023-02-10T04:24:54;101936.00;;;0.10
70533;BMP180;58088;51.186;17.130;2023-02-10T04:27:20;101934.40;;;0.10
70533;BMP180;58088;51.186;17.130;2023-02-10T04:29:46;101930.80;;;0.10
70533;BMP180;58088;51.186;17.130;2023-02-10T04:32:12;101926.40;;;0.10
70533;BMP180;58088;51.186;17.130;2023-02-10T04:34:39;101928.40;;;0.10
70533;BMP180;58088;51.186;17.130;2023-02-10T04:37:05;101927.80;;;0.10
70533;BMP180;58088;51.186;17.130;2023-02-10T04:39:31;101921.00;;;0.10
70533;BMP180;58088;51.186;17.130;2023-02-10T04:41:58;101925.80;;;0.02
70533;BMP180;58088;51.186;17.130;2023-02-10T04:44:24;101921.80;;;0.00
70533;BMP180;58088;51.186;17.130;2023-02-10T04:46:50;101924.80;;;0.00
70533;BMP180;58088;51.186;17.130;2023-02-10T04:49:17;101927.20;;;0.00
70533;BMP180;58088;51.186;17.130;2023-02-10T04:51:44;101933.80;;;0.00
70533;BMP180;58088;51.186;17.130;2023-02-10T04:54:10;101930.60;;;0.00
70533;BMP180;58088;51.186;17.130;2023-02-10T04:56:36;101931.20;;;0.00
70533;BMP180;58088;51.186;17.130;2023-02-10T04:59:02;101930.80;;;0.00
70533;BMP180;58088;51.186;17.130;2023-02-10T05:01:29;101922.60;;;0.00
70533;BMP180;58088;51.186;17.130;2023-02-10T05:03:55;101927.00;;;0.00
70533;BMP180;58088;51.186;17.130;2023-02-10T05:06:21;101924.80;;;0.00
70533;BMP180;58088;51.186;17.130;2023-02-10T05:08:48;101921.00;;;0.00
70533;BMP180;58088;51.186;17.130;2023-02-10T05:11:16;101924.00;;;0.00
70533;BMP180;58088;51.186;17.130;2023-02-10T05:13:44;101928.00;;;0.00
70533;BMP180;58088;51.186;17.130;2023-02-10T05:16:12;101937.80;;;0.00
70533;BMP180;58088;51.186;17.130;2023-02-10T05:18:39;101934.60;;;0.10
70533;BMP180;58088;51.186;17.130;2023-02-10T05:21:08;101941.60;;;0.10
70533;BMP180;58088;51.186;17.130;2023-02-10T05:23:35;101939.60;;;0.20
70533;BMP180;58088;51.186;17.130;2023-02-10T05:26:02;101940.80;;;0.30
70533;BMP180;58088;51.186;17.130;2023-02-10T05:28:28;101939.60;;;0.40
70533;BMP180;58088;51.186;17.130;2023-02-10T05:30:54;101944.40;;;0.44
70533;BMP180;58088;51.186;17.130;2023-02-10T05:33:20;101948.40;;;0.50
70533;BMP180;58088;51.186;17.130;2023-02-10T05:35:46;101948.80;;;0.60
70533;BMP180;58088;51.186;17.130;2023-02-10T05:38:13;101962.00;;;0.76
70533;BMP180;58088;51.186;17.130;2023-02-10T05:40:39;101955.20;;;0.80
70533;BMP180;58088;51.186;17.130;2023-02-10T05:43:05;101956.80;;;0.90
70533;BMP180;58088;51.186;17.130;2023-02-10T05:45:34;101958.80;;;1.00
70533;BMP180;58088;51.186;17.130;2023-02-10T05:48:01;101961.40;;;1.10
70533;BMP180;58088;51.186;17.130;2023-02-10T05:50:27;101977.60;;;1.18
70533;BMP180;58088;51.186;17.130;2023-02-10T05:52:55;101971.60;;;1.20
70533;BMP180;58088;51.186;17.130;2023-02-10T05:55:21;101969.20;;;1.30
70533;BMP180;58088;51.186;17.130;2023-02-10T05:57:48;101973.80;;;1.38
70533;BMP180;58088;51.186;17.130;2023-02-10T06:00:16;101981.20;;;1.40
70533;BMP180;58088;51.186;17.130;2023-02-10T06:02:43;101976.00;;;1.46
70533;BMP180;58088;51.186;17.130;2023-02-10T06:05:10;101978.60;;;1.50
70533;BMP180;58088;51.186;17.130;2023-02-10T06:07:36;101986.40;;;1.58
70533;BMP180;58088;51.186;17.130;2023-02-10T06:10:02;101995.00;;;1.60
70533;BMP180;58088;51.186;17.130;2023-02-10T06:12:29;101995.00;;;1.64
70533;BMP180;58088;51.186;17.130;2023-02-10T06:14:55;101998.20;;;1.70
70533;BMP180;58088;51.186;17.130;2023-02-10T06:17:21;102001.60;;;1.70
70533;BMP180;58088;51.186;17.130;2023-02-10T06:19:47;102001.00;;;1.80
70533;BMP180;58088;51.186;17.130;2023-02-10T06:22:13;102004.80;;;1.80
70533;BMP180;58088;51.186;17.130;2023-02-10T06:24:40;102007.40;;;1.80
70533;BMP180;58088;51.186;17.130;2023-02-10T06:27:07;102012.40;;;1.80
70533;BMP180;58088;51.186;17.130;2023-02-10T06:29:33;102015.00;;;1.80
70533;BMP180;58088;51.186;17.130;2023-02-10T06:31:59;102018.00;;;1.90
70533;BMP180;58088;51.186;17.130;2023-02-10T06:34:26;102012.80;;;1.90
70533;BMP180;58088;51.186;17.130;2023-02-10T06:36:52;102012.20;;;1.90
70533;BMP180;58088;51.186;17.130;2023-02-10T06:39:18;101998.20;;;1.98
70533;BMP180;58088;51.186;17.130;2023-02-10T06:41:45;102009.40;;;2.00
70533;BMP180;58088;51.186;17.130;2023-02-10T06:44:11;102010.80;;;2.00
70533;BMP180;58088;51.186;17.130;2023-02-10T06:46:37;102016.60;;;2.10
70533;BMP180;58088;51.186;17.130;2023-02-10T06:49:03;102018.80;;;2.10
70533;BMP180;58088;51.186;17.130;2023-02-10T06:51:29;102021.20;;;2.10
70533;BMP180;58088;51.186;17.130;2023-02-10T06:53:56;102023.40;;;2.10
70533;BMP180;58088;51.186;17.130;2023-02-10T06:56:22;102022.60;;;2.16
70533;BMP180;58088;51.186;17.130;2023-02-10T06:58:48;102016.60;;;2.20
70533;BMP180;58088;51.186;17.130;2023-02-10T07:01:17;102011.00;;;2.20
70533;BMP180;58088;51.186;17.130;2023-02-10T07:03:44;102013.00;;;2.20
70533;BMP180;58088;51.186;17.130;2023-02-10T07:06:11;102012.40;;;2.30
70533;BMP180;58088;51.186;17.130;2023-02-10T07:08:37;102023.00;;;2.30
70533;BMP180;58088;51.186;17.130;2023-02-10T07:11:03;102020.20;;;2.30
70533;BMP180;58088;51.186;17.130;2023-02-10T07:13:30;102031.40;;;2.30
70533;BMP180;58088;51.186;17.130;2023-02-10T07:15:56;102032.40;;;2.30
70533;BMP180;58088;51.186;17.130;2023-02-10T07:18:22;102034.80;;;2.40
70533;BMP180;58088;51.186;17.130;2023-02-10T07:20:48;102043.00;;;2.40
70533;BMP180;58088;51.186;17.130;2023-02-10T07:23:14;102032.80;;;2.50
70533;BMP180;58088;51.186;17.130;2023-02-10T07:25:41;102033.80;;;2.50
70533;BMP180;58088;51.186;17.130;2023-02-10T07:28:07;102040.80;;;2.52
70533;BMP180;58088;51.186;17.130;2023-02-10T07:30:34;102035.60;;;2.60
70533;BMP180;58088;51.186;17.130;2023-02-10T07:33:00;102041.20;;;2.60
70533;BMP180;58088;51.186;17.130;2023-02-10T07:35:28;102044.60;;;2.66
70533;BMP180;58088;51.186;17.130;2023-02-10T07:37:54;102051.60;;;2.70
70533;BMP180;58088;51.186;17.130;2023-02-10T07:40:20;102052.20;;;2.70
70533;BMP180;58088;51.186;17.130;2023-02-10T07:42:47;102047.20;;;2.80
70533;BMP180;58088;51.186;17.130;2023-02-10T07:45:22;102046.00;;;2.80
70533;BMP180;58088;51.186;17.130;2023-02-10T07:47:48;102040.00;;;2.90
70533;BMP180;58088;51.186;17.130;2023-02-10T07:50:15;102037.60;;;2.90
70533;BMP180;58088;51.186;17.130;2023-02-10T07:52:41;102031.60;;;3.00
70533;BMP180;58088;51.186;17.130;2023-02-10T07:55:09;102034.00;;;3.10
70533;BMP180;58088;51.186;17.130;2023-02-10T07:57:35;102034.60;;;3.10
70533;BMP180;58088;51.186;17.130;2023-02-10T08:00:07;102043.20;;;3.20
70533;BMP180;58088;51.186;17.130;2023-02-10T08:02:39;102041.80;;;3.28
70533;BMP180;58088;51.186;17.130;2023-02-10T08:05:05;102038.00;;;3.32
70533;BMP180;58088;51.186;17.130;2023-02-10T08:07:32;102041.60;;;3.40
70533;BMP180;58088;51.186;17.130;2023-02-10T08:09:58;102041.80;;;3.50
70533;BMP180;58088;51.186;17.130;2023-02-10T08:12:25;102034.60;;;3.60
70533;BMP180;58088;51.186;17.130;2023-02-10T08:14:51;102031.20;;;3.60
70533;BMP180;58088;51.186;17.130;2023-02-10T08:17:17;102028.80;;;3.70
70533;BMP180;58088;51.186;17.130;2023-02-10T08:19:43;102036.60;;;3.72
70533;BMP180;58088;51.186;17.130;2023-02-10T08:22:09;102043.00;;;3.80
70533;BMP180;58088;51.186;17.130;2023-02-10T08:24:36;102043.40;;;3.90
70533;BMP180;58088;51.186;17.130;2023-02-10T08:27:05;102040.60;;;3.90
70533;BMP180;58088;51.186;17.130;2023-02-10T08:29:32;102041.80;;;4.00
70533;BMP180;58088;51.186;17.130;2023-02-10T08:31:58;102043.40;;;4.00
70533;BMP180;58088;51.186;17.130;2023-02-10T08:34:24;102038.60;;;4.10
70533;BMP180;58088;51.186;17.130;2023-02-10T08:36:50;102035.40;;;4.10
70533;BMP180;58088;51.186;17.130;2023-02-10T08:39:17;102039.80;;;4.10
70533;BMP180;58088;51.186;17.130;2023-02-10T08:41:43;102043.00;;;4.20
70533;BMP180;58088;51.186;17.130;2023-02-10T08:44:12;102044.00;;;4.20
70533;BMP180;58088;51.186;17.130;2023-02-10T08:46:39;102043.20;;;4.20
70533;BMP180;58088;51.186;17.130;2023-02-10T08:49:06;102043.40;;;4.20
70533;BMP180;58088;51.186;17.130;2023-02-10T08:51:32;102045.80;;;4.26
70533;BMP180;58088;51.186;17.130;2023-02-10T08:54:02;102052.60;;;4.30
70533;BMP180;58088;51.186;17.130;2023-02-10T08:56:29;102051.00;;;4.40
70533;BMP180;58088;51.186;17.130;2023-02-10T08:58:55;102044.80;;;4.40
70533;BMP180;58088;51.186;17.130;2023-02-10T09:01:25;102043.80;;;4.40
70533;BMP180;58088;51.186;17.130;2023-02-10T09:03:53;102042.40;;;4.50
70533;BMP180;58088;51.186;17.130;2023-02-10T09:06:29;102039.80;;;4.60
70533;BMP180;58088;51.186;17.130;2023-02-10T09:08:57;102043.80;;;4.60
70533;BMP180;58088;51.186;17.130;2023-02-10T09:11:23;102042.60;;;4.70
70533;BMP180;58088;51.186;17.130;2023-02-10T09:13:51;102046.80;;;4.80
70533;BMP180;58088;51.186;17.130;2023-02-10T09:16:18;102052.00;;;4.90
70533;BMP180;58088;51.186;17.130;2023-02-10T09:18:45;102051.40;;;5.00
70533;BMP180;58088;51.186;17.130;2023-02-10T09:21:11;102050.00;;;5.10
70533;BMP180;58088;51.186;17.130;2023-02-10T09:23:37;102047.20;;;5.20
70533;BMP180;58088;51.186;17.130;2023-02-10T09:26:04;102054.20;;;5.20
70533;BMP180;58088;51.186;17.130;2023-02-10T09:28:30;102063.60;;;5.20
70533;BMP180;58088;51.186;17.130;2023-02-10T09:30:56;102060.60;;;5.30
70533;BMP180;58088;51.186;17.130;2023-02-10T09:33:23;102065.00;;;5.30
70533;BMP180;58088;51.186;17.130;2023-02-10T09:35:49;102069.80;;;5.40
70533;BMP180;58088;51.186;17.130;2023-02-10T09:38:15;102065.40;;;5.50
70533;BMP180;58088;51.186;17.130;2023-02-10T09:54:47;102076.40;;;5.80
70533;BMP180;58088;51.186;17.130;2023-02-10T09:57:35;102077.20;;;5.80
70533;BMP180;58088;51.186;17.130;2023-02-10T10:00:16;102075.20;;;5.80
70533;BMP180;58088;51.186;17.130;2023-02-10T10:02:50;102084.80;;;5.80
70533;BMP180;58088;51.186;17.130;2023-02-10T10:08:00;102089.20;;;5.90
70533;BMP180;58088;51.186;17.130;2023-02-10T10:10:37;102091.60;;;5.90
70533;BMP180;58088;51.186;17.130;2023-02-10T10:13:28;102091.60;;;5.92
70533;BMP180;58088;51.186;17.130;2023-02-10T10:31:14;102082.00;;;6.30
70533;BMP180;58088;51.186;17.130;2023-02-10T10:33:54;102079.00;;;6.40
70533;BMP180;58088;51.186;17.130;2023-02-10T10:36:38;102078.40;;;6.40
70533;BMP180;58088;51.186;17.130;2023-02-10T10:39:32;102075.80;;;6.46
70533;BMP180;58088;51.186;17.130;2023-02-10T10:45:20;102075.20;;;6.40
70533;BMP180;58088;51.186;17.130;2023-02-10T10:48:01;102071.00;;;6.40
70533;BMP180;58088;51.186;17.130;2023-02-10T10:50:32;102070.00;;;6.50
70533;BMP180;58088;51.186;17.130;2023-02-10T10:53:15;102067.40;;;6.60
70533;BMP180;58088;51.186;17.130;2023-02-10T10:55:54;102069.20;;;6.70
70533;BMP180;58088;51.186;17.130;2023-02-10T10:58:37;102064.20;;;6.70
70533;BMP180;58088;51.186;17.130;2023-02-10T11:01:04;102054.60;;;6.80
70533;BMP180;58088;51.186;17.130;2023-02-10T11:03:32;102048.20;;;6.70
70533;BMP180;58088;51.186;17.130;2023-02-10T11:06:14;102052.00;;;6.70
70533;BMP180;58088;51.186;17.130;2023-02-10T11:09:04;102062.40;;;6.70
70533;BMP180;58088;51.186;17.130;2023-02-10T11:11:38;102059.80;;;6.80
70533;BMP180;58088;51.186;17.130;2023-02-10T11:14:28;102045.20;;;6.90
70533;BMP180;58088;51.186;17.130;2023-02-10T11:16:58;102047.40;;;6.90
70533;BMP180;58088;51.186;17.130;2023-02-10T11:19:32;102044.80;;;6.90
70533;BMP180;58088;51.186;17.130;2023-02-10T11:22:00;102043.80;;;6.90
70533;BMP180;58088;51.186;17.130;2023-02-10T11:24:30;102048.00;;;6.90
70533;BMP180;58088;51.186;17.130;2023-02-10T11:27:12;102044.40;;;6.90
70533;BMP180;58088;51.186;17.130;2023-02-10T11:29:54;102039.60;;;6.90
70533;BMP180;58088;51.186;17.130;2023-02-10T11:32:28;102041.00;;;6.90
70533;BMP180;58088;51.186;17.130;2023-02-10T11:34:59;102036.60;;;6.90
70533;BMP180;58088;51.186;17.130;2023-02-10T11:37:30;102028.40;;;6.90
70533;BMP180;58088;51.186;17.130;2023-02-10T11:40:00;102035.60;;;6.88
70533;BMP180;58088;51.186;17.130;2023-02-10T11:42:31;102036.00;;;6.90
70533;BMP180;58088;51.186;17.130;2023-02-10T11:47:34;102039.80;;;6.92
70533;BMP180;58088;51.186;17.130;2023-02-10T11:50:00;102047.40;;;7.00
70533;BMP180;58088;51.186;17.130;2023-02-10T11:52:29;102040.60;;;7.00
70533;BMP180;58088;51.186;17.130;2023-02-10T11:54:57;102045.60;;;7.10
70533;BMP180;58088;51.186;17.130;2023-02-10T12:00:54;102030.80;;;7.00
70533;BMP180;58088;51.186;17.130;2023-02-10T12:10:45;102041.00;;;7.04
70533;BMP180;58088;51.186;17.130;2023-02-10T12:27:27;102040.40;;;7.10
70533;BMP180;58088;51.186;17.130;2023-02-10T12:30:04;102037.20;;;7.10
70533;BMP180;58088;51.186;17.130;2023-02-10T12:33:10;102037.80;;;7.10
70533;BMP180;58088;51.186;17.130;2023-02-10T12:42:06;102037.80;;;7.02
70533;BMP180;58088;51.186;17.130;2023-02-10T12:44:36;102044.00;;;7.00
70533;BMP180;58088;51.186;17.130;2023-02-10T12:52:41;102039.60;;;7.00
70533;BMP180;58088;51.186;17.130;2023-02-10T12:55:22;102038.20;;;7.08
70533;BMP180;58088;51.186;17.130;2023-02-10T12:58:07;102041.00;;;7.10
70533;BMP180;58088;51.186;17.130;2023-02-10T13:03:32;102045.60;;;7.10
70533;BMP180;58088;51.186;17.130;2023-02-10T13:06:20;102039.60;;;7.10
70533;BMP180;58088;51.186;17.130;2023-02-10T13:12:17;102039.20;;;7.10
70533;BMP180;58088;51.186;17.130;2023-02-10T13:14:48;102040.80;;;7.10
70533;BMP180;58088;51.186;17.130;2023-02-10T13:17:16;102038.20;;;7.10
70533;BMP180;58088;51.186;17.130;2023-02-10T13:19:59;102039.40;;;7.10
70533;BMP180;58088;51.186;17.130;2023-02-10T13:25:30;102051.00;;;7.00
70533;BMP180;58088;51.186;17.130;2023-02-10T13:31:02;102051.80;;;7.00
70533;BMP180;58088;51.186;17.130;2023-02-10T13:36:18;102042.60;;;7.00
70533;BMP180;58088;51.186;17.130;2023-02-10T13:38:49;102041.60;;;7.00
70533;BMP180;58088;51.186;17.130;2023-02-10T13:41:33;102043.00;;;7.00
70533;BMP180;58088;51.186;17.130;2023-02-10T13:44:30;102047.00;;;7.00
70533;BMP180;58088;51.186;17.130;2023-02-10T13:49:56;102045.00;;;7.06
70533;BMP180;58088;51.186;17.130;2023-02-10T13:52:31;102048.00;;;7.00
70533;BMP180;58088;51.186;17.130;2023-02-10T13:57:38;102055.00;;;7.10
70533;BMP180;58088;51.186;17.130;2023-02-10T14:00:14;102052.80;;;7.00
70533;BMP180;58088;51.186;17.130;2023-02-10T14:02:43;102070.00;;;7.00
70533;BMP180;58088;51.186;17.130;2023-02-10T14:05:34;102072.60;;;7.06
70533;BMP180;58088;51.186;17.130;2023-02-10T14:08:26;102070.20;;;7.04
70533;BMP180;58088;51.186;17.130;2023-02-10T14:11:29;102068.40;;;7.10
70533;BMP180;58088;51.186;17.130;2023-02-10T14:14:14;102071.20;;;7.20
70533;BMP180;58088;51.186;17.130;2023-02-10T14:16:42;102074.40;;;7.20
70533;BMP180;58088;51.186;17.130;2023-02-10T14:19:44;102078.00;;;7.20
70533;BMP180;58088;51.186;17.130;2023-02-10T14:24:47;102070.80;;;7.10
70533;BMP180;58088;51.186;17.130;2023-02-10T14:27:16;102073.00;;;7.08
70533;BMP180;58088;51.186;17.130;2023-02-10T14:29:52;102075.80;;;7.08
70533;BMP180;58088;51.186;17.130;2023-02-10T14:32:19;102075.00;;;7.04
70533;BMP180;58088;51.186;17.130;2023-02-10T14:34:59;102082.60;;;7.10
70533;BMP180;58088;51.186;17.130;2023-02-10T14:37:26;102084.60;;;7.10
70533;BMP180;58088;51.186;17.130;2023-02-10T14:40:00;102080.20;;;7.06
70533;BMP180;58088;51.186;17.130;2023-02-10T14:42:31;102080.80;;;7.00
70533;BMP180;58088;51.186;17.130;2023-02-10T14:45:01;102080.80;;;7.00
70533;BMP180;58088;51.186;17.130;2023-02-10T14:47:32;102083.20;;;6.90
70533;BMP180;58088;51.186;17.130;2023-02-10T14:49:59;102084.00;;;6.90
70533;BMP180;58088;51.186;17.130;2023-02-10T14:52:30;102072.80;;;6.90
70533;BMP180;58088;51.186;17.130;2023-02-10T14:54:58;102071.80;;;6.90
70533;BMP180;58088;51.186;17.130;2023-02-10T14:57:27;102076.60;;;6.80
70533;BMP180;58088;51.186;17.130;2023-02-10T15:00:00;102076.40;;;6.80
70533;BMP180;58088;51.186;17.130;2023-02-10T15:02:30;102080.60;;;6.72
70533;BMP180;58088;51.186;17.130;2023-02-10T15:04:59;102080.80;;;6.70
70533;BMP180;58088;51.186;17.130;2023-02-10T15:07:35;102084.40;;;6.70
70533;BMP180;58088;51.186;17.130;2023-02-10T15:12:37;102077.40;;;6.70
70533;BMP180;58088;51.186;17.130;2023-02-10T15:15:32;102076.00;;;6.70
70533;BMP180;58088;51.186;17.130;2023-02-10T15:18:07;102076.20;;;6.60
70533;BMP180;58088;51.186;17.130;2023-02-10T15:20:34;102080.00;;;6.62
70533;BMP180;58088;51.186;17.130;2023-02-10T15:25:32;102070.20;;;6.60
70533;BMP180;58088;51.186;17.130;2023-02-10T15:33:52;102070.00;;;6.44
70533;BMP180;58088;51.186;17.130;2023-02-10T15:42:37;102082.20;;;6.40
70533;BMP180;58088;51.186;17.130;2023-02-10T15:44:43;102082.80;;;6.40
70533;BMP180;58088;51.186;17.130;2023-02-10T15:49:58;102084.60;;;6.30
70533;BMP180;58088;51.186;17.130;2023-02-10T15:52:31;102080.40;;;6.30
70533;BMP180;58088;51.186;17.130;2023-02-10T15:55:03;102086.20;;;6.30
70533;BMP180;58088;51.186;17.130;2023-02-10T15:57:32;102082.60;;;6.24
70533;BMP180;58088;51.186;17.130;2023-02-10T15:59:58;102077.60;;;6.20
70533;BMP180;58088;51.186;17.130;2023-02-10T16:02:25;102087.20;;;6.20
70533;BMP180;58088;51.186;17.130;2023-02-10T16:04:53;102083.60;;;6.14
70533;BMP180;58088;51.186;17.130;2023-02-10T16:07:25;102091.00;;;6.10
70533;BMP180;58088;51.186;17.130;2023-02-10T16:09:54;102093.80;;;6.10
70533;BMP180;58088;51.186;17.130;2023-02-10T16:12:22;102091.20;;;6.10
70533;BMP180;58088;51.186;17.130;2023-02-10T16:14:49;102098.80;;;6.10
70533;BMP180;58088;51.186;17.130;2023-02-10T16:17:22;102102.80;;;6.10
70533;BMP180;58088;51.186;17.130;2023-02-10T16:19:50;102105.40;;;6.10
70533;BMP180;58088;51.186;17.130;2023-02-10T16:22:17;102098.40;;;6.10
70533;BMP180;58088;51.186;17.130;2023-02-10T16:24:44;102102.00;;;6.06
70533;BMP180;58088;51.186;17.130;2023-02-10T16:27:11;102098.20;;;6.00
70533;BMP180;58088;51.186;17.130;2023-02-10T16:29:41;102106.40;;;6.00
70533;BMP180;58088;51.186;17.130;2023-02-10T16:32:09;102113.40;;;6.00
70533;BMP180;58088;51.186;17.130;2023-02-10T16:34:37;102105.20;;;6.00
70533;BMP180;58088;51.186;17.130;2023-02-10T16:37:05;102105.40;;;6.00
70533;BMP180;58088;51.186;17.130;2023-02-10T16:39:32;102104.60;;;6.00